sensor_id;sensor_type;location;lat;lon;timestamp;P1;durP1;ratioP1;P2;durP2;ratioP2
12267;SDS011;6196;48.398;11.736;2024-03-08T00:00:11;18.30;;;11.47;;
12267;SDS011;6196;48.398;11.736;2024-03-08T00:02:41;18.37;;;11.90;;
12267;SDS011;6196;48.398;11.736;2024-03-08T00:05:09;20.43;;;12.67;;
12267;SDS011;6196;48.398;11.736;2024-03-08T00:07:37;19.73;;;11.97;;
12267;SDS011;6196;48.398;11.736;2024-03-08T00:10:05;18.40;;;12.65;;
12267;SDS011;6196;48.398;11.736;2024-03-08T00:12:38;18.80;;;12.30;;
12267;SDS011;6196;48.398;11.736;2024-03-08T00:15:10;17.47;;;11.50;;
12267;SDS011;6196;48.398;11.736;2024-03-08T00:17:44;18.20;;;12.10;;
12267;SDS011;6196;48.398;11.736;2024-03-08T00:20:11;18.67;;;12.17;;
12267;SDS011;6196;48.398;11.736;2024-03-08T00:22:40;18.13;;;11.83;;
12267;SDS011;6196;48.398;11.736;2024-03-08T00:25:07;20.57;;;13.10;;
12267;SDS011;6196;48.398;11.736;2024-03-08T00:27:38;16.20;;;10.90;;
12267;SDS011;6196;48.398;11.736;2024-03-08T00:30:05;17.80;;;12.10;;
12267;SDS011;6196;48.398;11.736;2024-03-08T00:32:34;18.60;;;11.53;;
12267;SDS011;6196;48.398;11.736;2024-03-08T00:35:02;20.93;;;12.60;;
12267;SDS011;6196;48.398;11.736;2024-03-08T00:37:30;20.17;;;12.33;;
12267;SDS011;6196;48.398;11.736;2024-03-08T00:39:56;20.17;;;12.60;;
12267;SDS011;6196;48.398;11.736;2024-03-08T00:42:23;19.00;;;12.77;;
12267;SDS011;6196;48.398;11.736;2024-03-08T00:44:51;19.87;;;12.03;;
12267;SDS011;6196;48.398;11.736;2024-03-08T00:47:18;17.57;;;12.13;;
12267;SDS011;6196;48.398;11.736;2024-03-08T00:49:45;19.13;;;12.37;;
12267;SDS011;6196;48.398;11.736;2024-03-08T00:52:13;21.47;;;12.93;;
12267;SDS011;6196;48.398;11.736;2024-03-08T00:54:40;18.37;;;11.67;;
12267;SDS011;6196;48.398;11.736;2024-03-08T00:57:09;19.93;;;12.63;;
12267;SDS011;6196;48.398;11.736;2024-03-08T00:59:37;17.93;;;12.40;;
12267;SDS011;6196;48.398;11.736;2024-03-08T01:02:05;20.20;;;12.73;;
12267;SDS011;6196;48.398;11.736;2024-03-08T01:04:32;16.70;;;11.80;;
12267;SDS011;6196;48.398;11.736;2024-03-08T01:06:59;19.63;;;12.23;;
12267;SDS011;6196;48.398;11.736;2024-03-08T01:09:27;19.23;;;12.50;;
12267;SDS011;6196;48.398;11.736;2024-03-08T01:11:54;20.47;;;12.67;;
12267;SDS011;6196;48.398;11.736;2024-03-08T01:14:22;18.93;;;11.77;;
12267;SDS011;6196;48.398;11.736;2024-03-08T01:16:55;19.53;;;12.00;;
12267;SDS011;6196;48.398;11.736;2024-03-08T01:19:22;19.10;;;12.70;;
12267;SDS011;6196;48.398;11.736;2024-03-08T01:21:50;18.83;;;12.77;;
12267;SDS011;6196;48.398;11.736;2024-03-08T01:24:17;21.57;;;13.40;;
12267;SDS011;6196;48.398;11.736;2024-03-08T01:26:44;22.77;;;14.27;;
12267;SDS011;6196;48.398;11.736;2024-03-08T01:29:11;21.60;;;14.23;;
12267;SDS011;6196;48.398;11.736;2024-03-08T01:31:39;21.57;;;14.57;;
12267;SDS011;6196;48.398;11.736;2024-03-08T01:34:06;21.47;;;14.03;;
12267;SDS011;6196;48.398;11.736;2024-03-08T01:36:32;24.83;;;14.60;;
12267;SDS011;6196;48.398;11.736;2024-03-08T01:38:59;25.13;;;14.93;;
12267;SDS011;6196;48.398;11.736;2024-03-08T01:41:26;22.63;;;13.83;;
12267;SDS011;6196;48.398;11.736;2024-03-08T01:43:56;22.77;;;15.50;;
12267;SDS011;6196;48.398;11.736;2024-03-08T01:46:23;22.60;;;14.50;;
12267;SDS011;6196;48.398;11.736;2024-03-08T01:48:50;27.80;;;14.83;;
12267;SDS011;6196;48.398;11.736;2024-03-08T01:51:18;24.57;;;15.93;;
12267;SDS011;6196;48.398;11.736;2024-03-08T01:53:46;24.77;;;15.30;;
12267;SDS011;6196;48.398;11.736;2024-03-08T01:56:14;25.20;;;14.90;;
12267;SDS011;6196;48.398;11.736;2024-03-08T01:58:42;20.57;;;13.80;;
12267;SDS011;6196;48.398;11.736;2024-03-08T02:01:13;23.27;;;14.47;;
12267;SDS011;6196;48.398;11.736;2024-03-08T02:03:42;25.67;;;14.97;;
12267;SDS011;6196;48.398;11.736;2024-03-08T02:06:11;22.23;;;14.20;;
12267;SDS011;6196;48.398;11.736;2024-03-08T02:08:41;24.97;;;14.97;;
12267;SDS011;6196;48.398;11.736;2024-03-08T02:11:13;23.97;;;14.20;;
12267;SDS011;6196;48.398;11.736;2024-03-08T02:13:41;27.80;;;16.47;;
12267;SDS011;6196;48.398;11.736;2024-03-08T02:16:08;23.93;;;14.57;;
12267;SDS011;6196;48.398;11.736;2024-03-08T02:18:35;25.93;;;15.43;;
12267;SDS011;6196;48.398;11.736;2024-03-08T02:21:04;24.90;;;15.10;;
12267;SDS011;6196;48.398;11.736;2024-03-08T02:23:33;25.97;;;15.03;;
12267;SDS011;6196;48.398;11.736;2024-03-08T02:26:00;24.90;;;15.10;;
12267;SDS011;6196;48.398;11.736;2024-03-08T02:28:28;24.83;;;15.57;;
12267;SDS011;6196;48.398;11.736;2024-03-08T02:30:55;25.23;;;15.73;;
12267;SDS011;6196;48.398;11.736;2024-03-08T02:33:24;28.10;;;15.77;;
12267;SDS011;6196;48.398;11.736;2024-03-08T02:35:53;21.70;;;14.03;;
12267;SDS011;6196;48.398;11.736;2024-03-08T02:38:21;27.00;;;15.80;;
12267;SDS011;6196;48.398;11.736;2024-03-08T02:40:51;22.17;;;14.57;;
12267;SDS011;6196;48.398;11.736;2024-03-08T02:43:21;24.87;;;15.20;;
12267;SDS011;6196;48.398;11.736;2024-03-08T02:45:49;25.33;;;15.80;;
12267;SDS011;6196;48.398;11.736;2024-03-08T02:48:18;24.43;;;14.90;;
12267;SDS011;6196;48.398;11.736;2024-03-08T02:50:46;22.50;;;14.43;;
12267;SDS011;6196;48.398;11.736;2024-03-08T02:53:13;24.87;;;14.90;;
12267;SDS011;6196;48.398;11.736;2024-03-08T02:55:40;23.70;;;14.90;;
12267;SDS011;6196;48.398;11.736;2024-03-08T02:58:08;23.87;;;14.33;;
12267;SDS011;6196;48.398;11.736;2024-03-08T03:00:37;25.07;;;15.47;;
12267;SDS011;6196;48.398;11.736;2024-03-08T03:03:08;25.00;;;14.77;;
12267;SDS011;6196;48.398;11.736;2024-03-08T03:05:35;26.27;;;14.53;;
12267;SDS011;6196;48.398;11.736;2024-03-08T03:08:02;23.97;;;14.70;;
12267;SDS011;6196;48.398;11.736;2024-03-08T03:10:36;25.23;;;14.43;;
12267;SDS011;6196;48.398;11.736;2024-03-08T03:13:03;25.40;;;14.80;;
12267;SDS011;6196;48.398;11.736;2024-03-08T03:15:31;24.73;;;15.10;;
12267;SDS011;6196;48.398;11.736;2024-03-08T03:18:00;22.33;;;13.90;;
12267;SDS011;6196;48.398;11.736;2024-03-08T03:20:27;25.77;;;14.57;;
12267;SDS011;6196;48.398;11.736;2024-03-08T03:23:06;25.20;;;12.97;;
12267;SDS011;6196;48.398;11.736;2024-03-08T03:25:35;24.07;;;14.70;;
12267;SDS011;6196;48.398;11.736;2024-03-08T03:28:02;24.60;;;14.63;;
12267;SDS011;6196;48.398;11.736;2024-03-08T03:30:30;26.07;;;15.17;;
12267;SDS011;6196;48.398;11.736;2024-03-08T03:33:00;24.33;;;14.23;;
12267;SDS011;6196;48.398;11.736;2024-03-08T03:35:28;23.60;;;14.07;;
12267;SDS011;6196;48.398;11.736;2024-03-08T03:37:55;24.07;;;14.20;;
12267;SDS011;6196;48.398;11.736;2024-03-08T03:40:37;29.13;;;15.70;;
12267;SDS011;6196;48.398;11.736;2024-03-08T03:43:06;28.70;;;15.67;;
12267;SDS011;6196;48.398;11.736;2024-03-08T03:45:34;26.37;;;15.47;;
12267;SDS011;6196;48.398;11.736;2024-03-08T03:48:04;27.07;;;16.03;;
12267;SDS011;6196;48.398;11.736;2024-03-08T03:50:37;27.93;;;16.53;;
12267;SDS011;6196;48.398;11.736;2024-03-08T03:53:05;28.07;;;16.50;;
12267;SDS011;6196;48.398;11.736;2024-03-08T03:55:36;27.90;;;16.50;;
12267;SDS011;6196;48.398;11.736;2024-03-08T03:58:06;30.77;;;17.13;;
12267;SDS011;6196;48.398;11.736;2024-03-08T04:00:33;28.93;;;16.87;;
12267;SDS011;6196;48.398;11.736;2024-03-08T04:02:59;30.60;;;18.83;;
12267;SDS011;6196;48.398;11.736;2024-03-08T04:05:27;33.03;;;18.20;;
12267;SDS011;6196;48.398;11.736;2024-03-08T04:07:54;29.60;;;17.47;;
12267;SDS011;6196;48.398;11.736;2024-03-08T04:10:21;35.30;;;18.80;;
12267;SDS011;6196;48.398;11.736;2024-03-08T04:12:48;36.70;;;20.67;;
12267;SDS011;6196;48.398;11.736;2024-03-08T04:15:15;33.67;;;18.73;;
12267;SDS011;6196;48.398;11.736;2024-03-08T04:17:42;35.00;;;19.73;;
12267;SDS011;6196;48.398;11.736;2024-03-08T04:20:12;38.87;;;19.20;;
12267;SDS011;6196;48.398;11.736;2024-03-08T04:22:41;36.53;;;19.33;;
12267;SDS011;6196;48.398;11.736;2024-03-08T04:25:09;30.77;;;16.37;;
12267;SDS011;6196;48.398;11.736;2024-03-08T04:27:36;32.10;;;18.30;;
12267;SDS011;6196;48.398;11.736;2024-03-08T04:30:03;41.37;;;22.03;;
12267;SDS011;6196;48.398;11.736;2024-03-08T04:32:34;33.00;;;19.47;;
12267;SDS011;6196;48.398;11.736;2024-03-08T04:35:01;38.20;;;20.63;;
12267;SDS011;6196;48.398;11.736;2024-03-08T04:37:29;38.63;;;19.77;;
12267;SDS011;6196;48.398;11.736;2024-03-08T04:39:56;41.37;;;20.93;;
12267;SDS011;6196;48.398;11.736;2024-03-08T04:42:24;37.83;;;20.37;;
12267;SDS011;6196;48.398;11.736;2024-03-08T04:44:52;39.57;;;21.27;;
12267;SDS011;6196;48.398;11.736;2024-03-08T04:47:20;39.57;;;22.03;;
12267;SDS011;6196;48.398;11.736;2024-03-08T04:49:47;38.50;;;19.63;;
12267;SDS011;6196;48.398;11.736;2024-03-08T04:52:14;39.63;;;21.43;;
12267;SDS011;6196;48.398;11.736;2024-03-08T04:54:41;39.60;;;20.20;;
12267;SDS011;6196;48.398;11.736;2024-03-08T04:57:08;45.20;;;23.60;;
12267;SDS011;6196;48.398;11.736;2024-03-08T04:59:35;39.83;;;21.57;;
12267;SDS011;6196;48.398;11.736;2024-03-08T05:02:02;43.80;;;23.17;;
12267;SDS011;6196;48.398;11.736;2024-03-08T05:04:30;40.63;;;21.87;;
12267;SDS011;6196;48.398;11.736;2024-03-08T05:06:57;41.60;;;22.03;;
12267;SDS011;6196;48.398;11.736;2024-03-08T05:09:27;45.10;;;22.40;;
12267;SDS011;6196;48.398;11.736;2024-03-08T05:11:55;41.97;;;21.67;;
12267;SDS011;6196;48.398;11.736;2024-03-08T05:14:25;45.13;;;22.97;;
12267;SDS011;6196;48.398;11.736;2024-03-08T05:16:52;41.60;;;20.67;;
12267;SDS011;6196;48.398;11.736;2024-03-08T05:19:19;44.50;;;22.23;;
12267;SDS011;6196;48.398;11.736;2024-03-08T05:21:47;41.43;;;21.53;;
12267;SDS011;6196;48.398;11.736;2024-03-08T05:24:16;40.83;;;21.37;;
12267;SDS011;6196;48.398;11.736;2024-03-08T05:26:45;44.37;;;22.40;;
12267;SDS011;6196;48.398;11.736;2024-03-08T05:29:13;45.97;;;22.90;;
12267;SDS011;6196;48.398;11.736;2024-03-08T05:31:50;37.67;;;21.00;;
12267;SDS011;6196;48.398;11.736;2024-03-08T05:34:21;43.27;;;23.70;;
12267;SDS011;6196;48.398;11.736;2024-03-08T05:36:49;43.50;;;22.33;;
12267;SDS011;6196;48.398;11.736;2024-03-08T05:39:17;41.30;;;22.87;;
12267;SDS011;6196;48.398;11.736;2024-03-08T05:41:46;44.93;;;23.17;;
12267;SDS011;6196;48.398;11.736;2024-03-08T05:44:14;44.77;;;23.40;;
12267;SDS011;6196;48.398;11.736;2024-03-08T05:46:43;41.97;;;22.00;;
12267;SDS011;6196;48.398;11.736;2024-03-08T05:49:10;43.30;;;23.47;;
12267;SDS011;6196;48.398;11.736;2024-03-08T05:51:38;43.50;;;23.53;;
12267;SDS011;6196;48.398;11.736;2024-03-08T05:54:07;42.73;;;21.50;;
12267;SDS011;6196;48.398;11.736;2024-03-08T05:56:37;46.03;;;23.93;;
12267;SDS011;6196;48.398;11.736;2024-03-08T05:59:08;42.73;;;22.23;;
12267;SDS011;6196;48.398;11.736;2024-03-08T06:01:36;39.63;;;21.87;;
12267;SDS011;6196;48.398;11.736;2024-03-08T06:04:04;47.03;;;23.77;;
12267;SDS011;6196;48.398;11.736;2024-03-08T06:06:31;45.53;;;24.03;;
12267;SDS011;6196;48.398;11.736;2024-03-08T06:08:58;46.90;;;23.70;;
12267;SDS011;6196;48.398;11.736;2024-03-08T06:11:25;44.00;;;23.10;;
12267;SDS011;6196;48.398;11.736;2024-03-08T06:13:57;42.00;;;22.10;;
12267;SDS011;6196;48.398;11.736;2024-03-08T06:16:26;43.07;;;22.60;;
12267;SDS011;6196;48.398;11.736;2024-03-08T06:18:56;42.87;;;22.57;;
12267;SDS011;6196;48.398;11.736;2024-03-08T06:21:24;39.00;;;22.57;;
12267;SDS011;6196;48.398;11.736;2024-03-08T06:23:54;43.23;;;21.63;;
12267;SDS011;6196;48.398;11.736;2024-03-08T06:26:21;47.73;;;24.03;;
12267;SDS011;6196;48.398;11.736;2024-03-08T06:28:48;43.80;;;23.37;;
12267;SDS011;6196;48.398;11.736;2024-03-08T06:31:17;44.90;;;22.97;;
12267;SDS011;6196;48.398;11.736;2024-03-08T06:33:43;43.63;;;23.50;;
12267;SDS011;6196;48.398;11.736;2024-03-08T06:36:11;45.73;;;23.53;;
12267;SDS011;6196;48.398;11.736;2024-03-08T06:38:38;44.10;;;23.87;;
12267;SDS011;6196;48.398;11.736;2024-03-08T06:41:09;46.17;;;25.57;;
12267;SDS011;6196;48.398;11.736;2024-03-08T06:43:45;44.40;;;24.07;;
12267;SDS011;6196;48.398;11.736;2024-03-08T06:46:14;46.60;;;25.13;;
12267;SDS011;6196;48.398;11.736;2024-03-08T06:48:42;47.40;;;25.50;;
12267;SDS011;6196;48.398;11.736;2024-03-08T06:51:09;41.87;;;24.50;;
12267;SDS011;6196;48.398;11.736;2024-03-08T06:53:37;42.57;;;22.83;;
12267;SDS011;6196;48.398;11.736;2024-03-08T06:56:07;47.70;;;23.53;;
12267;SDS011;6196;48.398;11.736;2024-03-08T06:58:34;40.27;;;23.00;;
12267;SDS011;6196;48.398;11.736;2024-03-08T07:01:01;46.30;;;23.87;;
12267;SDS011;6196;48.398;11.736;2024-03-08T07:03:30;41.90;;;23.73;;
12267;SDS011;6196;48.398;11.736;2024-03-08T07:05:59;39.10;;;21.80;;
12267;SDS011;6196;48.398;11.736;2024-03-08T07:08:28;44.53;;;23.97;;
12267;SDS011;6196;48.398;11.736;2024-03-08T07:10:55;43.57;;;24.63;;
12267;SDS011;6196;48.398;11.736;2024-03-08T07:13:25;40.97;;;23.30;;
12267;SDS011;6196;48.398;11.736;2024-03-08T07:15:55;41.47;;;21.60;;
12267;SDS011;6196;48.398;11.736;2024-03-08T07:18:22;40.80;;;24.73;;
12267;SDS011;6196;48.398;11.736;2024-03-08T07:20:49;43.70;;;25.87;;
12267;SDS011;6196;48.398;11.736;2024-03-08T07:23:16;43.10;;;24.60;;
12267;SDS011;6196;48.398;11.736;2024-03-08T07:26:01;39.77;;;22.20;;
12267;SDS011;6196;48.398;11.736;2024-03-08T07:28:29;42.43;;;24.57;;
12267;SDS011;6196;48.398;11.736;2024-03-08T07:31:00;43.20;;;25.33;;
12267;SDS011;6196;48.398;11.736;2024-03-08T07:33:56;45.17;;;24.47;;
12267;SDS011;6196;48.398;11.736;2024-03-08T07:36:22;37.60;;;22.63;;
12267;SDS011;6196;48.398;11.736;2024-03-08T07:38:49;40.20;;;23.00;;
12267;SDS011;6196;48.398;11.736;2024-03-08T07:41:16;42.63;;;24.00;;
12267;SDS011;6196;48.398;11.736;2024-03-08T07:43:43;40.17;;;23.03;;
12267;SDS011;6196;48.398;11.736;2024-03-08T07:46:10;39.57;;;24.57;;
12267;SDS011;6196;48.398;11.736;2024-03-08T07:48:39;42.07;;;24.73;;
12267;SDS011;6196;48.398;11.736;2024-03-08T07:51:07;39.60;;;22.67;;
12267;SDS011;6196;48.398;11.736;2024-03-08T07:53:36;45.33;;;23.00;;
12267;SDS011;6196;48.398;11.736;2024-03-08T07:56:04;42.90;;;23.40;;
12267;SDS011;6196;48.398;11.736;2024-03-08T07:58:31;43.47;;;23.17;;
12267;SDS011;6196;48.398;11.736;2024-03-08T08:01:01;43.17;;;23.07;;
12267;SDS011;6196;48.398;11.736;2024-03-08T08:03:28;45.17;;;25.10;;
12267;SDS011;6196;48.398;11.736;2024-03-08T08:05:55;41.63;;;25.17;;
12267;SDS011;6196;48.398;11.736;2024-03-08T08:08:22;34.37;;;20.10;;
12267;SDS011;6196;48.398;11.736;2024-03-08T08:10:49;40.00;;;23.47;;
12267;SDS011;6196;48.398;11.736;2024-03-08T08:13:16;37.93;;;21.67;;
12267;SDS011;6196;48.398;11.736;2024-03-08T08:15:44;40.33;;;22.97;;
12267;SDS011;6196;48.398;11.736;2024-03-08T08:18:12;42.77;;;23.60;;
12267;SDS011;6196;48.398;11.736;2024-03-08T08:20:40;35.90;;;21.40;;
12267;SDS011;6196;48.398;11.736;2024-03-08T08:23:07;33.73;;;20.50;;
12267;SDS011;6196;48.398;11.736;2024-03-08T08:25:38;29.43;;;19.23;;
12267;SDS011;6196;48.398;11.736;2024-03-08T08:28:05;33.33;;;22.00;;
12267;SDS011;6196;48.398;11.736;2024-03-08T08:30:32;33.07;;;19.60;;
12267;SDS011;6196;48.398;11.736;2024-03-08T08:32:59;35.83;;;21.13;;
12267;SDS011;6196;48.398;11.736;2024-03-08T08:35:27;36.40;;;22.27;;
12267;SDS011;6196;48.398;11.736;2024-03-08T08:37:55;34.47;;;21.53;;
12267;SDS011;6196;48.398;11.736;2024-03-08T08:40:22;32.17;;;20.07;;
12267;SDS011;6196;48.398;11.736;2024-03-08T08:42:49;33.23;;;20.43;;
12267;SDS011;6196;48.398;11.736;2024-03-08T08:45:16;32.80;;;20.00;;
12267;SDS011;6196;48.398;11.736;2024-03-08T08:47:50;37.93;;;23.27;;
12267;SDS011;6196;48.398;11.736;2024-03-08T08:50:18;35.47;;;21.77;;
12267;SDS011;6196;48.398;11.736;2024-03-08T08:52:51;36.40;;;21.93;;
12267;SDS011;6196;48.398;11.736;2024-03-08T08:55:18;31.17;;;19.13;;
12267;SDS011;6196;48.398;11.736;2024-03-08T08:57:48;32.57;;;20.70;;
12267;SDS011;6196;48.398;11.736;2024-03-08T09:00:15;34.93;;;22.97;;
12267;SDS011;6196;48.398;11.736;2024-03-08T09:02:43;32.47;;;22.67;;
12267;SDS011;6196;48.398;11.736;2024-03-08T09:05:10;29.97;;;20.73;;
12267;SDS011;6196;48.398;11.736;2024-03-08T09:07:43;32.53;;;20.97;;
12267;SDS011;6196;48.398;11.736;2024-03-08T09:10:11;30.07;;;20.73;;
12267;SDS011;6196;48.398;11.736;2024-03-08T09:12:43;31.93;;;21.57;;
12267;SDS011;6196;48.398;11.736;2024-03-08T09:15:11;31.30;;;20.83;;
12267;SDS011;6196;48.398;11.736;2024-03-08T09:17:39;31.60;;;21.03;;
12267;SDS011;6196;48.398;11.736;2024-03-08T09:20:07;25.93;;;18.87;;
12267;SDS011;6196;48.398;11.736;2024-03-08T09:22:36;28.50;;;20.20;;
12267;SDS011;6196;48.398;11.736;2024-03-08T09:25:04;27.43;;;19.20;;
12267;SDS011;6196;48.398;11.736;2024-03-08T09:27:31;29.27;;;20.63;;
12267;SDS011;6196;48.398;11.736;2024-03-08T09:29:58;27.07;;;19.30;;
12267;SDS011;6196;48.398;11.736;2024-03-08T09:32:25;26.80;;;19.70;;
12267;SDS011;6196;48.398;11.736;2024-03-08T09:34:52;27.13;;;18.30;;
12267;SDS011;6196;48.398;11.736;2024-03-08T09:37:20;27.53;;;20.00;;
12267;SDS011;6196;48.398;11.736;2024-03-08T09:39:47;27.37;;;19.53;;
12267;SDS011;6196;48.398;11.736;2024-03-08T09:42:15;26.23;;;19.80;;
12267;SDS011;6196;48.398;11.736;2024-03-08T09:44:46;26.30;;;19.47;;
12267;SDS011;6196;48.398;11.736;2024-03-08T09:47:13;24.40;;;18.40;;
12267;SDS011;6196;48.398;11.736;2024-03-08T09:49:41;23.13;;;17.10;;
12267;SDS011;6196;48.398;11.736;2024-03-08T09:52:10;24.73;;;18.93;;
12267;SDS011;6196;48.398;11.736;2024-03-08T09:54:38;27.23;;;19.77;;
12267;SDS011;6196;48.398;11.736;2024-03-08T09:57:06;27.07;;;18.43;;
12267;SDS011;6196;48.398;11.736;2024-03-08T09:59:35;23.00;;;17.57;;
12267;SDS011;6196;48.398;11.736;2024-03-08T10:02:02;23.57;;;16.90;;
12267;SDS011;6196;48.398;11.736;2024-03-08T10:04:29;22.73;;;17.23;;
12267;SDS011;6196;48.398;11.736;2024-03-08T10:07:00;25.87;;;18.40;;
12267;SDS011;6196;48.398;11.736;2024-03-08T10:09:28;23.23;;;17.90;;
12267;SDS011;6196;48.398;11.736;2024-03-08T10:11:58;23.03;;;16.97;;
12267;SDS011;6196;48.398;11.736;2024-03-08T10:14:25;24.50;;;17.70;;
12267;SDS011;6196;48.398;11.736;2024-03-08T10:16:55;23.37;;;16.87;;
12267;SDS011;6196;48.398;11.736;2024-03-08T10:19:27;22.60;;;16.97;;
12267;SDS011;6196;48.398;11.736;2024-03-08T10:21:58;22.53;;;15.90;;
12267;SDS011;6196;48.398;11.736;2024-03-08T10:24:26;20.40;;;15.87;;
12267;SDS011;6196;48.398;11.736;2024-03-08T10:26:53;23.07;;;18.00;;
12267;SDS011;6196;48.398;11.736;2024-03-08T10:29:31;23.43;;;16.90;;
12267;SDS011;6196;48.398;11.736;2024-03-08T10:31:58;24.57;;;17.10;;
12267;SDS011;6196;48.398;11.736;2024-03-08T10:34:26;21.57;;;16.13;;
12267;SDS011;6196;48.398;11.736;2024-03-08T10:36:53;21.70;;;16.07;;
12267;SDS011;6196;48.398;11.736;2024-03-08T10:39:34;23.57;;;16.23;;
12267;SDS011;6196;48.398;11.736;2024-03-08T10:42:03;24.27;;;16.27;;
12267;SDS011;6196;48.398;11.736;2024-03-08T10:44:43;20.67;;;16.07;;
12267;SDS011;6196;48.398;11.736;2024-03-08T10:47:49;20.83;;;15.23;;
12267;SDS011;6196;48.398;11.736;2024-03-08T10:50:41;19.83;;;14.97;;
12267;SDS011;6196;48.398;11.736;2024-03-08T10:53:13;20.53;;;15.20;;
12267;SDS011;6196;48.398;11.736;2024-03-08T10:55:40;21.07;;;15.13;;
12267;SDS011;6196;48.398;11.736;2024-03-08T10:58:10;21.47;;;16.10;;
12267;SDS011;6196;48.398;11.736;2024-03-08T11:00:37;17.47;;;14.10;;
12267;SDS011;6196;48.398;11.736;2024-03-08T11:03:04;18.37;;;14.07;;
12267;SDS011;6196;48.398;11.736;2024-03-08T11:05:38;18.77;;;14.13;;
12267;SDS011;6196;48.398;11.736;2024-03-08T11:10:50;18.77;;;14.00;;
12267;SDS011;6196;48.398;11.736;2024-03-08T11:16:09;18.27;;;14.20;;
12267;SDS011;6196;48.398;11.736;2024-03-08T11:18:37;19.03;;;13.87;;
12267;SDS011;6196;48.398;11.736;2024-03-08T11:21:05;17.80;;;13.60;;
12267;SDS011;6196;48.398;11.736;2024-03-08T11:23:39;18.17;;;14.13;;
12267;SDS011;6196;48.398;11.736;2024-03-08T11:26:23;20.33;;;15.10;;
12267;SDS011;6196;48.398;11.736;2024-03-08T11:28:51;16.13;;;12.87;;
12267;SDS011;6196;48.398;11.736;2024-03-08T11:31:23;19.73;;;14.50;;
12267;SDS011;6196;48.398;11.736;2024-03-08T11:33:53;17.13;;;14.50;;
12267;SDS011;6196;48.398;11.736;2024-03-08T11:36:21;17.13;;;13.60;;
12267;SDS011;6196;48.398;11.736;2024-03-08T11:38:53;16.30;;;13.93;;
12267;SDS011;6196;48.398;11.736;2024-03-08T11:41:24;19.30;;;14.73;;
12267;SDS011;6196;48.398;11.736;2024-03-08T11:44:01;18.70;;;13.63;;
12267;SDS011;6196;48.398;11.736;2024-03-08T11:46:34;17.00;;;13.07;;
12267;SDS011;6196;48.398;11.736;2024-03-08T11:49:01;19.13;;;13.30;;
12267;SDS011;6196;48.398;11.736;2024-03-08T11:51:29;15.43;;;13.00;;
12267;SDS011;6196;48.398;11.736;2024-03-08T11:53:58;17.70;;;13.30;;
12267;SDS011;6196;48.398;11.736;2024-03-08T11:56:25;16.63;;;12.87;;
12267;SDS011;6196;48.398;11.736;2024-03-08T11:58:54;16.57;;;13.20;;
12267;SDS011;6196;48.398;11.736;2024-03-08T12:01:24;15.13;;;12.53;;
12267;SDS011;6196;48.398;11.736;2024-03-08T12:03:54;15.83;;;12.47;;
12267;SDS011;6196;48.398;11.736;2024-03-08T12:06:25;14.60;;;11.77;;
12267;SDS011;6196;48.398;11.736;2024-03-08T12:08:53;13.57;;;11.87;;
12267;SDS011;6196;48.398;11.736;2024-03-08T12:11:20;17.17;;;12.47;;
12267;SDS011;6196;48.398;11.736;2024-03-08T12:13:50;13.93;;;10.73;;
12267;SDS011;6196;48.398;11.736;2024-03-08T12:16:18;15.43;;;11.27;;
12267;SDS011;6196;48.398;11.736;2024-03-08T12:18:46;15.20;;;12.03;;
12267;SDS011;6196;48.398;11.736;2024-03-08T12:21:13;12.47;;;10.50;;
12267;SDS011;6196;48.398;11.736;2024-03-08T12:23:44;19.00;;;17.07;;
12267;SDS011;6196;48.398;11.736;2024-03-08T12:28:43;17.23;;;12.83;;
12267;SDS011;6196;48.398;11.736;2024-03-08T12:31:14;16.43;;;12.43;;
12267;SDS011;6196;48.398;11.736;2024-03-08T12:36:22;16.90;;;13.20;;
12267;SDS011;6196;48.398;11.736;2024-03-08T12:38:50;15.87;;;13.40;;
12267;SDS011;6196;48.398;11.736;2024-03-08T12:41:20;15.37;;;13.37;;
12267;SDS011;6196;48.398;11.736;2024-03-08T12:43:48;16.43;;;13.63;;
12267;SDS011;6196;48.398;11.736;2024-03-08T12:48:44;13.13;;;11.63;;
12267;SDS011;6196;48.398;11.736;2024-03-08T12:51:13;12.17;;;10.40;;
12267;SDS011;6196;48.398;11.736;2024-03-08T12:53:45;12.37;;;11.07;;
12267;SDS011;6196;48.398;11.736;2024-03-08T12:56:13;12.30;;;9.77;;
12267;SDS011;6196;48.398;11.736;2024-03-08T12:58:48;11.83;;;10.50;;
12267;SDS011;6196;48.398;11.736;2024-03-08T13:01:15;11.67;;;9.53;;
12267;SDS011;6196;48.398;11.736;2024-03-08T13:03:44;11.13;;;9.57;;
12267;SDS011;6196;48.398;11.736;2024-03-08T13:06:11;11.60;;;10.07;;
12267;SDS011;6196;48.398;11.736;2024-03-08T13:08:38;11.10;;;9.87;;
12267;SDS011;6196;48.398;11.736;2024-03-08T13:11:07;10.50;;;9.13;;
12267;SDS011;6196;48.398;11.736;2024-03-08T13:13:38;14.27;;;11.27;;
12267;SDS011;6196;48.398;11.736;2024-03-08T13:16:06;12.37;;;10.40;;
12267;SDS011;6196;48.398;11.736;2024-03-08T13:18:35;11.43;;;10.20;;
12267;SDS011;6196;48.398;11.736;2024-03-08T13:21:02;13.63;;;10.83;;
12267;SDS011;6196;48.398;11.736;2024-03-08T13:23:34;12.83;;;10.77;;
12267;SDS011;6196;48.398;11.736;2024-03-08T13:26:12;12.13;;;10.83;;
12267;SDS011;6196;48.398;11.736;2024-03-08T13:28:45;12.40;;;10.67;;
12267;SDS011;6196;48.398;11.736;2024-03-08T13:31:12;11.80;;;10.63;;
12267;SDS011;6196;48.398;11.736;2024-03-08T13:33:41;11.40;;;10.30;;
12267;SDS011;6196;48.398;11.736;2024-03-08T13:36:08;13.23;;;10.47;;
12267;SDS011;6196;48.398;11.736;2024-03-08T13:38:42;11.90;;;10.70;;
12267;SDS011;6196;48.398;11.736;2024-03-08T13:41:11;12.37;;;11.07;;
12267;SDS011;6196;48.398;11.736;2024-03-08T13:43:41;11.70;;;10.33;;
12267;SDS011;6196;48.398;11.736;2024-03-08T13:46:08;13.30;;;11.40;;
12267;SDS011;6196;48.398;11.736;2024-03-08T13:48:36;12.60;;;10.87;;
12267;SDS011;6196;48.398;11.736;2024-03-08T13:51:04;10.97;;;9.77;;
12267;SDS011;6196;48.398;11.736;2024-03-08T13:53:36;10.87;;;9.77;;
12267;SDS011;6196;48.398;11.736;2024-03-08T13:56:03;11.23;;;10.03;;
12267;SDS011;6196;48.398;11.736;2024-03-08T13:58:32;10.63;;;9.57;;
12267;SDS011;6196;48.398;11.736;2024-03-08T14:00:59;12.17;;;10.00;;
12267;SDS011;6196;48.398;11.736;2024-03-08T14:03:27;12.23;;;10.27;;
12267;SDS011;6196;48.398;11.736;2024-03-08T14:05:53;11.30;;;10.03;;
12267;SDS011;6196;48.398;11.736;2024-03-08T14:08:22;10.77;;;9.67;;
12267;SDS011;6196;48.398;11.736;2024-03-08T14:10:50;10.90;;;9.70;;
12267;SDS011;6196;48.398;11.736;2024-03-08T14:13:20;10.40;;;9.30;;
12267;SDS011;6196;48.398;11.736;2024-03-08T14:15:47;9.27;;;8.23;;
12267;SDS011;6196;48.398;11.736;2024-03-08T14:18:14;10.20;;;9.20;;
12267;SDS011;6196;48.398;11.736;2024-03-08T14:20:42;10.40;;;8.83;;
12267;SDS011;6196;48.398;11.736;2024-03-08T14:23:08;10.40;;;9.30;;
12267;SDS011;6196;48.398;11.736;2024-03-08T14:25:36;10.57;;;8.97;;
12267;SDS011;6196;48.398;11.736;2024-03-08T14:28:03;10.80;;;9.47;;
12267;SDS011;6196;48.398;11.736;2024-03-08T14:30:34;10.80;;;8.73;;
12267;SDS011;6196;48.398;11.736;2024-03-08T14:33:02;10.20;;;9.20;;
12267;SDS011;6196;48.398;11.736;2024-03-08T14:35:29;10.20;;;8.97;;
12267;SDS011;6196;48.398;11.736;2024-03-08T14:37:56;10.47;;;9.30;;
12267;SDS011;6196;48.398;11.736;2024-03-08T14:40:24;9.53;;;8.53;;
12267;SDS011;6196;48.398;11.736;2024-03-08T14:42:52;10.97;;;9.27;;
12267;SDS011;6196;48.398;11.736;2024-03-08T14:45:19;8.93;;;8.03;;